createdAt,value
2018-09-28T00:00:36.993Z,11.54
2018-09-28T00:03:05.675Z,11.55
2018-09-28T00:05:34.397Z,11.48
2018-09-28T00:08:03.179Z,11.53
2018-09-28T00:10:31.928Z,11.64
2018-09-28T00:13:00.626Z,11.69
2018-09-28T00:15:29.425Z,11.63
2018-09-28T00:17:58.081Z,11.57
2018-09-28T00:20:26.997Z,11.57
2018-09-28T00:22:55.736Z,11.50
2018-09-28T00:25:24.445Z,11.51
2018-09-28T00:27:53.112Z,11.50
2018-09-28T00:30:21.852Z,11.53
2018-09-28T00:32:50.669Z,11.47
2018-09-28T00:35:19.388Z,11.40
2018-09-28T00:37:48.217Z,11.36
2018-09-28T00:40:17.004Z,11.29
2018-09-28T00:42:45.873Z,11.28
2018-09-28T00:45:14.910Z,11.28
2018-09-28T00:47:43.649Z,11.19
2018-09-28T00:50:12.341Z,11.19
2018-09-28T00:52:41.013Z,11.14
2018-09-28T00:55:09.720Z,11.16
2018-09-28T00:57:38.489Z,11.14
2018-09-28T01:00:07.316Z,11.15
2018-09-28T01:02:35.973Z,11.11
2018-09-28T01:05:04.882Z,11.08
2018-09-28T01:07:33.681Z,11.05
2018-09-28T01:10:02.706Z,11.09
2018-09-28T01:12:31.414Z,11.02
2018-09-28T01:15:00.234Z,11.03
2018-09-28T01:17:28.937Z,11.03
2018-09-28T01:19:57.665Z,11.02
2018-09-28T01:22:26.755Z,11.02
2018-09-28T01:24:55.406Z,11.01
2018-09-28T01:27:24.186Z,10.99
2018-09-28T01:29:52.847Z,10.89
2018-09-28T01:32:21.602Z,10.97
2018-09-28T01:34:50.590Z,10.95
2018-09-28T01:37:19.354Z,10.95
2018-09-28T01:39:48.133Z,10.96
2018-09-28T01:42:16.789Z,10.96
2018-09-28T01:44:45.501Z,10.92
2018-09-28T01:47:14.213Z,10.89
2018-09-28T01:49:42.861Z,10.85
2018-09-28T01:52:11.502Z,10.84
2018-09-28T01:54:40.393Z,10.81
2018-09-28T01:57:09.460Z,10.83
2018-09-28T01:59:38.137Z,10.80
2018-09-28T02:02:06.849Z,10.81
2018-09-28T02:04:35.731Z,10.76
2018-09-28T02:07:04.540Z,10.71
2018-09-28T02:09:33.237Z,10.68
2018-09-28T02:12:02.223Z,10.66
2018-09-28T02:14:30.982Z,10.63
2018-09-28T02:16:59.651Z,10.58
2018-09-28T02:19:28.331Z,10.57
2018-09-28T02:21:57.026Z,10.54
2018-09-28T02:24:25.811Z,10.51
2018-09-28T02:26:54.495Z,10.46
2018-09-28T02:29:23.218Z,10.48
2018-09-28T02:31:52.034Z,10.46
2018-09-28T02:34:20.673Z,10.44
2018-09-28T02:36:49.384Z,10.45
2018-09-28T02:39:18.033Z,10.46
2018-09-28T02:41:46.729Z,10.47
2018-09-28T02:44:15.395Z,10.48
2018-09-28T02:46:44.111Z,10.41
2018-09-28T02:49:12.971Z,10.36
2018-09-28T02:51:41.697Z,10.37
2018-09-28T02:54:10.431Z,10.39
2018-09-28T02:56:39.145Z,10.39
2018-09-28T02:59:07.846Z,10.35
2018-09-28T03:01:36.539Z,10.30
2018-09-28T03:04:05.740Z,10.33
2018-09-28T03:06:34.443Z,10.28
2018-09-28T03:09:03.414Z,10.20
2018-09-28T03:11:32.105Z,10.24
2018-09-28T03:14:00.797Z,10.13
2018-09-28T03:16:29.494Z,10.12
2018-09-28T03:18:58.158Z,10.10
2018-09-28T03:21:26.977Z,10.09
2018-09-28T03:23:55.969Z,10.10
2018-09-28T03:26:24.782Z,10.11
2018-09-28T03:28:53.430Z,10.16
2018-09-28T03:31:22.357Z,10.15
2018-09-28T03:33:51.150Z,10.16
2018-09-28T03:36:19.908Z,10.14
2018-09-28T03:38:48.573Z,10.11
2018-09-28T03:41:17.261Z,10.08
2018-09-28T03:43:45.953Z,10.05
2018-09-28T03:46:14.634Z,10.06
2018-09-28T03:48:43.319Z,10.05
2018-09-28T03:51:12.141Z,10.05
2018-09-28T03:53:41.006Z,9.92
2018-09-28T03:56:09.662Z,9.96
2018-09-28T03:58:38.413Z,9.90
2018-09-28T04:01:07.168Z,9.80
2018-09-28T04:03:35.953Z,9.79
2018-09-28T04:06:04.746Z,9.79
2018-09-28T04:08:33.735Z,9.87
2018-09-28T04:11:02.433Z,9.87
2018-09-28T04:13:31.073Z,9.72
2018-09-28T04:15:59.860Z,9.78
2018-09-28T04:18:28.588Z,9.74
2018-09-28T04:20:57.267Z,9.71
2018-09-28T04:23:26.230Z,9.83
2018-09-28T04:25:54.913Z,9.84
2018-09-28T04:28:23.636Z,9.85
2018-09-28T04:30:52.659Z,9.83
2018-09-28T04:33:21.468Z,9.82
2018-09-28T04:35:50.235Z,9.82
2018-09-28T04:38:18.907Z,9.68
2018-09-28T04:40:47.694Z,9.65
2018-09-28T04:43:16.525Z,9.68
2018-09-28T04:45:45.604Z,9.68
2018-09-28T04:48:14.204Z,9.65
2018-09-28T04:50:42.937Z,9.59
2018-09-28T04:53:11.569Z,9.68
2018-09-28T04:55:40.371Z,9.65
2018-09-28T04:58:09.157Z,9.71
2018-09-28T05:00:37.911Z,9.73
2018-09-28T05:03:06.725Z,9.69
2018-09-28T05:05:35.480Z,9.77
2018-09-28T05:08:04.516Z,9.69
2018-09-28T05:10:33.176Z,9.66
2018-09-28T05:13:02.023Z,9.61
2018-09-28T05:15:30.674Z,9.59
2018-09-28T05:17:59.393Z,9.64
2018-09-28T05:20:28.414Z,9.63
2018-09-28T05:22:57.253Z,9.64
2018-09-28T05:25:26.192Z,9.69
2018-09-28T05:27:55.054Z,9.69
2018-09-28T05:30:23.834Z,9.59
2018-09-28T05:32:52.630Z,9.60
2018-09-28T05:35:21.309Z,9.59
2018-09-28T05:37:50.037Z,9.67
2018-09-28T05:40:19.374Z,9.67
2018-09-28T05:42:48.162Z,9.73
2018-09-28T05:45:16.807Z,9.79
2018-09-28T05:47:45.501Z,9.86
2018-09-28T05:50:14.341Z,9.85
2018-09-28T05:52:43.121Z,9.91
2018-09-28T05:55:11.784Z,9.96
2018-09-28T05:57:40.545Z,9.94
2018-09-28T06:00:14.444Z,10.02
2018-09-28T06:02:48.300Z,10.02
2018-09-28T06:05:22.211Z,10.05
2018-09-28T06:07:50.890Z,10.09
2018-09-28T06:10:19.605Z,10.17
2018-09-28T06:12:48.496Z,10.22
2018-09-28T06:15:17.172Z,10.29
2018-09-28T06:17:45.989Z,10.34
2018-09-28T06:20:14.605Z,10.42
2018-09-28T06:22:44.259Z,10.48
2018-09-28T06:25:13.021Z,10.51
2018-09-28T06:27:41.731Z,10.54
2018-09-28T06:30:10.507Z,10.54
2018-09-28T06:32:39.133Z,10.61
2018-09-28T06:35:07.994Z,10.73
2018-09-28T06:37:36.766Z,10.84
2018-09-28T06:40:05.546Z,10.92
2018-09-28T06:42:34.336Z,10.99
2018-09-28T06:45:03.012Z,11.09
2018-09-28T06:47:31.833Z,11.14
2018-09-28T06:50:00.525Z,11.24
2018-09-28T06:52:29.845Z,11.35
2018-09-28T06:54:58.608Z,11.43
2018-09-28T06:57:27.250Z,11.49
2018-09-28T06:59:56.436Z,11.61
2018-09-28T07:02:25.765Z,11.71
2018-09-28T07:04:54.444Z,11.79
2018-09-28T07:07:23.181Z,11.91
2018-09-28T07:09:52.033Z,11.99
2018-09-28T07:12:20.930Z,12.11
2018-09-28T07:14:49.631Z,12.10
2018-09-28T07:17:18.286Z,12.24
2018-09-28T07:19:47.170Z,12.35
2018-09-28T07:22:15.877Z,12.67
2018-09-28T07:24:44.768Z,12.87
2018-09-28T07:27:19.976Z,12.91
2018-09-28T07:29:49.081Z,12.93
2018-09-28T07:32:24.374Z,12.89
2018-09-28T07:34:53.113Z,12.98
2018-09-28T07:37:21.826Z,12.91
2018-09-28T07:39:50.497Z,12.99
2018-09-28T07:42:19.296Z,13.21
2018-09-28T07:44:48.118Z,13.20
2018-09-28T07:47:17.218Z,13.34
2018-09-28T07:49:45.993Z,13.39
2018-09-28T07:52:14.753Z,13.55
2018-09-28T07:54:43.478Z,13.58
2018-09-28T07:57:13.941Z,13.66
2018-09-28T07:59:42.806Z,13.82
2018-09-28T08:02:11.553Z,13.99
2018-09-28T08:04:40.400Z,13.88
2018-09-28T08:07:09.308Z,13.95
2018-09-28T08:09:38.055Z,14.20
2018-09-28T08:12:06.857Z,14.21
2018-09-28T08:14:35.812Z,14.35
2018-09-28T08:17:04.507Z,14.47
2018-09-28T08:19:33.193Z,14.49
2018-09-28T08:22:02.121Z,14.64
2018-09-28T08:24:30.924Z,14.67
2018-09-28T08:26:59.745Z,14.67
2018-09-28T08:29:28.642Z,14.79
2018-09-28T08:31:57.477Z,14.72
2018-09-28T08:34:26.233Z,14.82
2018-09-28T08:36:55.115Z,14.90
2018-09-28T08:39:23.817Z,14.99
2018-09-28T08:41:52.667Z,15.08
2018-09-28T08:44:21.729Z,15.18
2018-09-28T08:46:50.477Z,15.19
2018-09-28T08:49:19.255Z,15.25
2018-09-28T08:51:48.125Z,15.38
2018-09-28T08:54:16.837Z,15.36
2018-09-28T08:56:45.665Z,15.41
2018-09-28T08:59:14.502Z,15.52
2018-09-28T09:01:43.450Z,15.42
2018-09-28T09:04:12.264Z,15.36
2018-09-28T09:06:41.130Z,15.44
2018-09-28T09:09:12.380Z,15.41
2018-09-28T09:11:41.317Z,15.56
2018-09-28T09:14:10.081Z,15.72
2018-09-28T09:16:38.837Z,15.89
2018-09-28T09:19:07.741Z,16.00
2018-09-28T09:21:36.521Z,16.07
2018-09-28T09:24:05.865Z,16.24
2018-09-28T09:26:34.485Z,16.06
2018-09-28T09:29:03.249Z,16.13
2018-09-28T09:31:32.041Z,16.26
2018-09-28T09:34:00.724Z,16.35
2018-09-28T09:36:29.897Z,16.35
2018-09-28T09:38:58.629Z,16.50
2018-09-28T09:41:27.320Z,16.55
2018-09-28T09:43:55.971Z,16.62
2018-09-28T09:46:24.678Z,16.77
2018-09-28T09:48:53.536Z,16.82
2018-09-28T09:51:22.190Z,17.00
2018-09-28T09:53:50.880Z,17.05
2018-09-28T09:56:19.696Z,17.17
2018-09-28T09:58:48.434Z,17.27
2018-09-28T10:01:22.596Z,17.28
2018-09-28T10:03:51.997Z,17.33
2018-09-28T10:06:20.805Z,17.37
2018-09-28T10:08:49.718Z,17.53
2018-09-28T10:11:18.649Z,17.62
2018-09-28T10:13:47.554Z,17.79
2018-09-28T10:16:16.302Z,17.80
2018-09-28T10:18:45.115Z,17.91
2018-09-28T10:21:13.938Z,17.91
2018-09-28T10:23:42.777Z,18.01
2018-09-28T10:26:11.480Z,18.01
2018-09-28T10:28:40.167Z,17.93
2018-09-28T10:31:08.921Z,18.11
2018-09-28T10:33:37.705Z,18.08
2018-09-28T10:36:06.494Z,18.21
2018-09-28T10:38:35.258Z,18.18
2018-09-28T10:41:03.956Z,18.18
2018-09-28T10:43:32.630Z,18.23
2018-09-28T10:46:02.026Z,18.23
2018-09-28T10:48:30.813Z,18.39
2018-09-28T10:50:59.754Z,18.50
2018-09-28T10:53:28.473Z,18.66
2018-09-28T10:55:57.239Z,18.73
2018-09-28T10:58:25.980Z,18.60
2018-09-28T11:00:54.724Z,18.64
2018-09-28T11:03:23.489Z,18.73
2018-09-28T11:05:52.143Z,18.75
2018-09-28T11:08:21.001Z,18.80
2018-09-28T11:10:49.981Z,18.86
2018-09-28T11:13:18.817Z,19.02
2018-09-28T11:15:47.523Z,19.02
2018-09-28T11:18:16.345Z,19.23
2018-09-28T11:20:45.022Z,19.42
2018-09-28T11:23:13.961Z,19.63
2018-09-28T11:25:42.735Z,19.68
2018-09-28T11:28:11.650Z,19.76
2018-09-28T11:30:40.333Z,19.86
2018-09-28T11:33:09.199Z,20.08
2018-09-28T11:35:37.893Z,20.30
2018-09-28T11:38:06.694Z,20.18
2018-09-28T11:40:35.449Z,20.43
2018-09-28T11:43:04.390Z,20.42
2018-09-28T11:45:33.105Z,20.67
2018-09-28T11:48:01.823Z,20.83
2018-09-28T11:50:30.744Z,20.73
2018-09-28T11:52:59.530Z,20.99
2018-09-28T11:55:28.423Z,21.66
2018-09-28T11:57:57.154Z,22.04
2018-09-28T12:00:25.833Z,21.89
2018-09-28T12:02:54.522Z,21.93
2018-09-28T12:05:23.261Z,22.89
2018-09-28T12:07:52.376Z,23.11
2018-09-28T12:10:21.127Z,23.05
2018-09-28T12:12:50.015Z,22.82
2018-09-28T12:15:18.752Z,23.44
2018-09-28T12:17:47.493Z,22.04
2018-09-28T12:20:16.308Z,23.44
2018-09-28T12:22:44.962Z,24.64
2018-09-28T12:25:13.648Z,25.07
2018-09-28T12:27:42.502Z,24.90
2018-09-28T12:30:11.424Z,25.12
2018-09-28T12:32:40.247Z,25.04
2018-09-28T12:35:09.018Z,24.05
2018-09-28T12:37:37.715Z,23.44
2018-09-28T12:40:06.966Z,24.04
2018-09-28T12:42:35.737Z,24.49
2018-09-28T12:45:04.743Z,26.00
2018-09-28T12:47:33.320Z,25.86
2018-09-28T12:50:01.957Z,26.53
2018-09-28T12:52:30.717Z,28.05
2018-09-28T12:54:59.449Z,27.96
2018-09-28T12:57:28.154Z,26.59
2018-09-28T12:59:56.847Z,26.46
2018-09-28T13:02:25.787Z,27.19
2018-09-28T13:04:54.631Z,28.10
2018-09-28T13:07:23.378Z,27.36
2018-09-28T13:09:52.076Z,28.60
2018-09-28T13:12:20.847Z,28.09
2018-09-28T13:14:49.555Z,27.06
2018-09-28T13:17:18.251Z,27.86
2018-09-28T13:19:47.118Z,27.99
2018-09-28T13:22:15.837Z,28.36
2018-09-28T13:24:44.853Z,29.28
2018-09-28T13:27:13.565Z,28.99
2018-09-28T13:29:42.307Z,27.56
2018-09-28T13:32:11.102Z,28.27
2018-09-28T13:34:39.984Z,29.06
2018-09-28T13:37:08.769Z,30.38
2018-09-28T13:39:37.465Z,29.78
2018-09-28T13:42:06.271Z,30.44
2018-09-28T13:44:34.982Z,30.15
2018-09-28T13:47:03.626Z,28.50
2018-09-28T13:49:32.483Z,28.25
2018-09-28T13:52:01.355Z,30.22
2018-09-28T13:54:30.013Z,29.80
2018-09-28T13:56:58.804Z,29.55
2018-09-28T13:59:27.633Z,28.61
2018-09-28T14:01:56.585Z,27.37
2018-09-28T14:04:25.250Z,26.57
2018-09-28T14:06:54.005Z,23.97
2018-09-28T14:09:22.776Z,24.15
2018-09-28T14:11:51.519Z,23.85
2018-09-28T14:14:20.764Z,23.67
2018-09-28T14:16:49.456Z,23.51
2018-09-28T14:19:18.251Z,23.41
2018-09-28T14:21:47.065Z,22.98
2018-09-28T14:24:15.775Z,23.02
2018-09-28T14:26:44.817Z,22.47
2018-09-28T14:29:13.521Z,22.39
2018-09-28T14:31:42.170Z,21.80
2018-09-28T14:34:11.124Z,21.41
2018-09-28T14:36:39.925Z,21.31
2018-09-28T14:39:10.018Z,21.29
2018-09-28T14:41:39.047Z,21.22
2018-09-28T14:44:08.333Z,21.05
2018-09-28T14:46:37.148Z,21.06
2018-09-28T14:49:06.070Z,20.78
2018-09-28T14:51:35.009Z,20.79
2018-09-28T14:54:03.910Z,20.72
2018-09-28T14:56:32.703Z,20.89
2018-09-28T14:59:01.367Z,20.91
2018-09-28T15:01:30.122Z,20.86
2018-09-28T15:03:58.845Z,20.62
2018-09-28T15:06:27.716Z,20.68
2018-09-28T15:08:56.485Z,20.74
2018-09-28T15:11:25.222Z,20.62
2018-09-28T15:13:54.011Z,20.68
2018-09-28T15:16:23.220Z,20.61
2018-09-28T15:18:51.936Z,20.54
2018-09-28T15:21:20.637Z,20.48
2018-09-28T15:23:49.495Z,20.43
2018-09-28T15:26:18.239Z,20.40
2018-09-28T15:28:47.121Z,20.44
2018-09-28T15:31:15.814Z,20.51
2018-09-28T15:33:44.506Z,20.49
2018-09-28T15:36:13.324Z,20.48
2018-09-28T15:38:42.077Z,20.50
2018-09-28T15:41:11.700Z,20.50
2018-09-28T15:43:40.785Z,20.57
2018-09-28T15:46:09.707Z,20.47
2018-09-28T15:48:38.403Z,20.41
2018-09-28T15:51:07.470Z,19.84
2018-09-28T15:53:36.367Z,19.61
2018-09-28T15:56:05.169Z,19.41
2018-09-28T15:58:33.931Z,19.19
2018-09-28T16:01:02.745Z,19.14
2018-09-28T16:03:31.385Z,18.96
2018-09-28T16:06:00.715Z,18.88
2018-09-28T16:08:29.641Z,18.71
2018-09-28T16:10:58.385Z,18.66
2018-09-28T16:13:27.090Z,18.50
2018-09-28T16:15:55.871Z,18.44
2018-09-28T16:18:24.870Z,18.37
2018-09-28T16:20:53.776Z,18.29
2018-09-28T16:23:22.454Z,18.18
2018-09-28T16:25:51.241Z,18.12
2018-09-28T16:28:20.032Z,17.99
2018-09-28T16:30:49.942Z,17.85
2018-09-28T16:33:18.691Z,17.88
2018-09-28T16:35:47.618Z,17.78
2018-09-28T16:38:16.421Z,17.71
2018-09-28T16:40:45.185Z,17.68
2018-09-28T16:43:13.856Z,17.53
2018-09-28T16:45:42.545Z,17.36
2018-09-28T16:48:11.380Z,17.37
2018-09-28T16:50:40.141Z,17.29
2018-09-28T16:53:08.793Z,17.26
2018-09-28T16:55:37.521Z,17.21
2018-09-28T16:58:06.225Z,17.14
2018-09-28T17:00:35.185Z,17.07
2018-09-28T17:03:03.878Z,17.00
2018-09-28T17:05:32.518Z,16.93
2018-09-28T17:08:01.401Z,16.78
2018-09-28T17:10:30.051Z,16.79
2018-09-28T17:12:58.759Z,16.83
2018-09-28T17:15:27.853Z,16.75
2018-09-28T17:17:56.669Z,16.84
2018-09-28T17:20:25.430Z,16.77
2018-09-28T17:22:54.189Z,16.74
2018-09-28T17:25:23.039Z,16.60
2018-09-28T17:27:51.754Z,16.39
2018-09-28T17:30:20.705Z,16.39
2018-09-28T17:32:49.445Z,16.43
2018-09-28T17:35:18.137Z,16.31
2018-09-28T17:37:47.121Z,16.31
2018-09-28T17:40:15.698Z,16.20
2018-09-28T17:42:44.673Z,16.14
2018-09-28T17:45:13.502Z,16.04
2018-09-28T17:47:42.137Z,15.89
2018-09-28T17:50:11.201Z,15.91
2018-09-28T17:52:40.085Z,15.65
2018-09-28T17:55:08.886Z,15.72
2018-09-28T17:57:37.618Z,15.62
2018-09-28T18:00:06.794Z,15.59
2018-09-28T18:02:35.546Z,15.53
2018-09-28T18:05:04.443Z,15.48
2018-09-28T18:07:33.327Z,15.40
2018-09-28T18:10:02.158Z,15.47
2018-09-28T18:12:31.228Z,15.51
2018-09-28T18:15:00.309Z,15.48
2018-09-28T18:17:29.056Z,15.41
2018-09-28T18:19:57.774Z,15.29
2018-09-28T18:22:26.755Z,15.06
2018-09-28T18:24:55.857Z,15.06
2018-09-28T18:27:24.612Z,15.21
2018-09-28T18:29:53.229Z,15.14
2018-09-28T18:32:22.009Z,15.18
2018-09-28T18:34:50.680Z,15.20
2018-09-28T18:37:19.385Z,15.11
2018-09-28T18:39:48.177Z,15.06
2018-09-28T18:42:17.025Z,14.92
2018-09-28T18:44:45.653Z,14.83
2018-09-28T18:47:14.465Z,14.86
2018-09-28T18:49:43.114Z,14.84
2018-09-28T18:52:11.904Z,14.87
2018-09-28T18:54:40.590Z,14.84
2018-09-28T18:57:09.485Z,14.80
2018-09-28T18:59:38.512Z,14.66
2018-09-28T19:02:07.687Z,14.70
2018-09-28T19:04:36.494Z,14.62
2018-09-28T19:07:05.628Z,14.55
2018-09-28T19:09:34.286Z,14.53
2018-09-28T19:12:03.048Z,14.57
2018-09-28T19:14:31.812Z,14.60
2018-09-28T19:17:00.465Z,14.57
2018-09-28T19:19:29.192Z,14.41
2018-09-28T19:21:57.917Z,14.42
2018-09-28T19:24:26.645Z,14.23
2018-09-28T19:26:55.406Z,14.35
2018-09-28T19:29:24.186Z,14.32
2018-09-28T19:31:53.149Z,14.22
2018-09-28T19:34:21.962Z,14.19
2018-09-28T19:36:50.724Z,14.16
2018-09-28T19:39:19.596Z,14.04
2018-09-28T19:41:48.400Z,14.07
2018-09-28T19:44:17.259Z,14.09
2018-09-28T19:46:46.123Z,14.09
2018-09-28T19:49:15.239Z,14.16
2018-09-28T19:51:44.233Z,13.96
2018-09-28T19:54:13.014Z,13.98
2018-09-28T19:56:41.826Z,14.00
2018-09-28T19:59:11.107Z,13.98
2018-09-28T20:01:39.864Z,14.00
2018-09-28T20:04:08.874Z,14.00
2018-09-28T20:06:38.167Z,13.98
2018-09-28T20:09:09.519Z,14.03
2018-09-28T20:11:38.299Z,14.09
2018-09-28T20:14:07.839Z,14.00
2018-09-28T20:16:36.702Z,14.01
2018-09-28T20:19:05.905Z,13.97
2018-09-28T20:21:34.601Z,13.97
2018-09-28T20:24:03.401Z,13.95
2018-09-28T20:26:32.471Z,13.91
2018-09-28T20:29:01.202Z,13.95
2018-09-28T20:31:29.973Z,13.95
2018-09-28T20:33:58.758Z,13.92
2018-09-28T20:36:27.453Z,13.97
2018-09-28T20:38:56.192Z,13.96
2018-09-28T20:41:25.093Z,13.91
2018-09-28T20:43:54.120Z,13.94
2018-09-28T20:46:22.945Z,13.85
2018-09-28T20:48:52.031Z,13.87
2018-09-28T20:51:20.867Z,13.75
2018-09-28T20:53:49.687Z,13.72
2018-09-28T20:56:18.369Z,13.80
2018-09-28T20:58:47.488Z,13.83
2018-09-28T21:01:16.220Z,13.80
2018-09-28T21:03:45.050Z,13.78
2018-09-28T21:06:13.725Z,13.68
2018-09-28T21:08:42.596Z,13.63
2018-09-28T21:11:11.318Z,13.57
2018-09-28T21:13:40.127Z,13.58
2018-09-28T21:16:09.017Z,13.53
2018-09-28T21:18:37.840Z,13.51
2018-09-28T21:21:06.648Z,13.43
2018-09-28T21:23:35.594Z,13.32
2018-09-28T21:26:04.463Z,13.39
2018-09-28T21:28:33.280Z,13.37
2018-09-28T21:31:02.013Z,13.43
2018-09-28T21:33:31.034Z,13.35
2018-09-28T21:35:59.817Z,13.44
2018-09-28T21:38:29.441Z,13.47
2018-09-28T21:40:58.381Z,13.40
2018-09-28T21:43:27.098Z,13.29
2018-09-28T21:45:55.835Z,13.27
2018-09-28T21:48:24.786Z,13.24
2018-09-28T21:50:53.623Z,13.26
2018-09-28T21:53:22.434Z,13.28
2018-09-28T21:55:51.168Z,13.25
2018-09-28T21:58:19.977Z,13.15
2018-09-28T22:00:53.879Z,13.20
2018-09-28T22:03:22.557Z,13.19
2018-09-28T22:05:51.277Z,13.26
2018-09-28T22:08:19.991Z,13.35
2018-09-28T22:10:48.793Z,13.22
2018-09-28T22:13:17.452Z,13.23
2018-09-28T22:15:46.389Z,13.09
2018-09-28T22:18:15.152Z,13.10
2018-09-28T22:20:43.933Z,13.06
2018-09-28T22:23:12.746Z,12.94
2018-09-28T22:25:41.524Z,13.02
2018-09-28T22:28:10.271Z,12.98
2018-09-28T22:30:38.996Z,13.01
2018-09-28T22:33:07.785Z,12.97
2018-09-28T22:35:36.435Z,12.95
2018-09-28T22:38:05.386Z,12.88
2018-09-28T22:40:34.152Z,12.77
2018-09-28T22:43:02.828Z,12.77
2018-09-28T22:45:31.649Z,12.65
2018-09-28T22:48:00.377Z,12.61
2018-09-28T22:50:29.065Z,12.58
2018-09-28T22:52:57.884Z,12.38
2018-09-28T22:55:26.675Z,12.26
2018-09-28T22:57:55.373Z,12.26
2018-09-28T23:00:24.046Z,12.20
2018-09-28T23:02:52.709Z,12.17
2018-09-28T23:05:21.401Z,12.10
2018-09-28T23:07:50.334Z,12.07
2018-09-28T23:10:19.089Z,12.03
2018-09-28T23:12:47.801Z,11.92
2018-09-28T23:15:16.810Z,11.91
2018-09-28T23:17:45.547Z,11.81
2018-09-28T23:20:14.362Z,11.84
2018-09-28T23:22:43.369Z,11.81
2018-09-28T23:25:12.309Z,11.77
2018-09-28T23:27:41.261Z,11.73
2018-09-28T23:30:10.054Z,11.59
2018-09-28T23:32:38.977Z,11.67
2018-09-28T23:35:07.907Z,11.52
2018-09-28T23:37:36.628Z,11.51
2018-09-28T23:40:05.699Z,11.45
2018-09-28T23:42:34.407Z,11.45
2018-09-28T23:45:03.201Z,11.40
2018-09-28T23:47:31.882Z,11.36
2018-09-28T23:50:00.546Z,11.38
2018-09-28T23:52:29.351Z,11.31
2018-09-28T23:54:58.020Z,11.26
2018-09-28T23:57:26.657Z,11.27
2018-09-28T23:59:55.517Z,11.24
